sensor_id;sensor_type;location;lat;lon;timestamp;P1;durP1;ratioP1;P2;durP2;ratioP2
62268;SDS011;56517;51.634;5.566;2022-07-15T00:04:15;11.98;;;6.85;;
62268;SDS011;56517;51.634;5.566;2022-07-15T00:09:16;17.67;;;7.18;;
62268;SDS011;56517;51.634;5.566;2022-07-15T00:14:18;11.20;;;6.50;;
62268;SDS011;56517;51.634;5.566;2022-07-15T00:19:19;13.93;;;6.60;;
62268;SDS011;56517;51.634;5.566;2022-07-15T00:24:20;13.23;;;6.63;;
62268;SDS011;56517;51.634;5.566;2022-07-15T00:29:21;10.70;;;6.60;;
62268;SDS011;56517;51.634;5.566;2022-07-15T00:34:22;11.52;;;6.50;;
62268;SDS011;56517;51.634;5.566;2022-07-15T00:39:23;13.88;;;6.93;;
62268;SDS011;56517;51.634;5.566;2022-07-15T00:44:24;17.23;;;6.07;;
62268;SDS011;56517;51.634;5.566;2022-07-15T00:49:26;8.55;;;6.75;;
62268;SDS011;56517;51.634;5.566;2022-07-15T00:54:26;22.35;;;7.53;;
62268;SDS011;56517;51.634;5.566;2022-07-15T00:59:28;15.85;;;7.05;;
62268;SDS011;56517;51.634;5.566;2022-07-15T01:04:32;12.30;;;7.50;;
62268;SDS011;56517;51.634;5.566;2022-07-15T01:09:33;13.90;;;7.45;;
62268;SDS011;56517;51.634;5.566;2022-07-15T01:14:33;14.65;;;7.70;;
62268;SDS011;56517;51.634;5.566;2022-07-15T01:19:35;13.15;;;6.78;;
62268;SDS011;56517;51.634;5.566;2022-07-15T01:24:37;10.20;;;7.18;;
62268;SDS011;56517;51.634;5.566;2022-07-15T01:29:38;12.07;;;7.63;;
62268;SDS011;56517;51.634;5.566;2022-07-15T01:34:38;15.65;;;7.78;;
62268;SDS011;56517;51.634;5.566;2022-07-15T01:39:40;12.35;;;7.75;;
62268;SDS011;56517;51.634;5.566;2022-07-15T01:44:41;13.88;;;7.32;;
62268;SDS011;56517;51.634;5.566;2022-07-15T01:49:41;13.68;;;7.47;;
62268;SDS011;56517;51.634;5.566;2022-07-15T01:54:43;12.30;;;7.50;;
62268;SDS011;56517;51.634;5.566;2022-07-15T01:59:44;17.02;;;8.05;;
62268;SDS011;56517;51.634;5.566;2022-07-15T02:04:44;14.75;;;7.90;;
62268;SDS011;56517;51.634;5.566;2022-07-15T02:09:46;13.98;;;7.80;;
62268;SDS011;56517;51.634;5.566;2022-07-15T02:14:47;19.40;;;8.00;;
62268;SDS011;56517;51.634;5.566;2022-07-15T02:19:48;15.13;;;7.85;;
62268;SDS011;56517;51.634;5.566;2022-07-15T02:24:49;18.02;;;7.97;;
62268;SDS011;56517;51.634;5.566;2022-07-15T02:29:50;13.75;;;7.03;;
62268;SDS011;56517;51.634;5.566;2022-07-15T02:34:51;14.05;;;7.80;;
62268;SDS011;56517;51.634;5.566;2022-07-15T02:39:52;14.75;;;7.28;;
62268;SDS011;56517;51.634;5.566;2022-07-15T02:44:53;14.20;;;7.65;;
62268;SDS011;56517;51.634;5.566;2022-07-15T02:49:54;12.60;;;7.20;;
62268;SDS011;56517;51.634;5.566;2022-07-15T02:54:55;12.82;;;7.57;;
62268;SDS011;56517;51.634;5.566;2022-07-15T02:59:56;15.02;;;7.60;;
62268;SDS011;56517;51.634;5.566;2022-07-15T03:04:57;18.50;;;7.60;;
62268;SDS011;56517;51.634;5.566;2022-07-15T03:09:59;21.35;;;7.65;;
62268;SDS011;56517;51.634;5.566;2022-07-15T03:15:00;17.50;;;8.07;;
62268;SDS011;56517;51.634;5.566;2022-07-15T03:20:01;18.35;;;8.30;;
62268;SDS011;56517;51.634;5.566;2022-07-15T03:25:03;20.70;;;8.18;;
62268;SDS011;56517;51.634;5.566;2022-07-15T03:30:04;17.88;;;7.57;;
62268;SDS011;56517;51.634;5.566;2022-07-15T03:35:05;15.27;;;7.45;;
62268;SDS011;56517;51.634;5.566;2022-07-15T03:40:08;14.20;;;7.53;;
62268;SDS011;56517;51.634;5.566;2022-07-15T03:45:09;19.38;;;7.72;;
62268;SDS011;56517;51.634;5.566;2022-07-15T03:50:10;12.65;;;7.63;;
62268;SDS011;56517;51.634;5.566;2022-07-15T03:55:12;11.10;;;7.35;;
62268;SDS011;56517;51.634;5.566;2022-07-15T04:00:13;14.32;;;7.93;;
62268;SDS011;56517;51.634;5.566;2022-07-15T04:05:13;18.95;;;7.28;;
62268;SDS011;56517;51.634;5.566;2022-07-15T04:10:15;12.90;;;7.35;;
62268;SDS011;56517;51.634;5.566;2022-07-15T04:15:16;12.38;;;7.07;;
62268;SDS011;56517;51.634;5.566;2022-07-15T04:20:17;15.57;;;7.72;;
62268;SDS011;56517;51.634;5.566;2022-07-15T04:25:19;11.57;;;6.70;;
62268;SDS011;56517;51.634;5.566;2022-07-15T04:30:20;16.40;;;7.30;;
62268;SDS011;56517;51.634;5.566;2022-07-15T04:35:21;12.75;;;6.63;;
62268;SDS011;56517;51.634;5.566;2022-07-15T04:40:23;11.88;;;7.78;;
62268;SDS011;56517;51.634;5.566;2022-07-15T04:45:23;21.08;;;8.13;;
62268;SDS011;56517;51.634;5.566;2022-07-15T04:50:24;16.52;;;7.63;;
62268;SDS011;56517;51.634;5.566;2022-07-15T04:55:26;28.70;;;7.95;;
62268;SDS011;56517;51.634;5.566;2022-07-15T05:00:27;18.30;;;8.05;;
62268;SDS011;56517;51.634;5.566;2022-07-15T05:05:28;14.25;;;6.90;;
62268;SDS011;56517;51.634;5.566;2022-07-15T05:10:30;12.32;;;7.32;;
62268;SDS011;56517;51.634;5.566;2022-07-15T05:15:31;13.68;;;6.82;;
62268;SDS011;56517;51.634;5.566;2022-07-15T05:20:31;8.00;;;6.22;;
62268;SDS011;56517;51.634;5.566;2022-07-15T05:25:33;13.00;;;6.20;;
62268;SDS011;56517;51.634;5.566;2022-07-15T05:30:34;16.23;;;6.97;;
62268;SDS011;56517;51.634;5.566;2022-07-15T05:35:34;10.52;;;7.03;;
62268;SDS011;56517;51.634;5.566;2022-07-15T05:40:36;11.10;;;6.75;;
62268;SDS011;56517;51.634;5.566;2022-07-15T05:45:37;13.63;;;6.35;;
62268;SDS011;56517;51.634;5.566;2022-07-15T05:50:37;15.38;;;6.65;;
62268;SDS011;56517;51.634;5.566;2022-07-15T05:55:40;13.80;;;6.43;;
62268;SDS011;56517;51.634;5.566;2022-07-15T06:00:40;8.63;;;5.68;;
62268;SDS011;56517;51.634;5.566;2022-07-15T06:05:41;10.02;;;6.00;;
62268;SDS011;56517;51.634;5.566;2022-07-15T06:10:43;15.00;;;7.75;;
62268;SDS011;56517;51.634;5.566;2022-07-15T06:15:44;13.50;;;6.25;;
62268;SDS011;56517;51.634;5.566;2022-07-15T06:20:44;6.40;;;5.07;;
62268;SDS011;56517;51.634;5.566;2022-07-15T06:25:46;14.52;;;5.45;;
62268;SDS011;56517;51.634;5.566;2022-07-15T06:30:47;13.68;;;5.60;;
62268;SDS011;56517;51.634;5.566;2022-07-15T06:35:47;9.35;;;6.00;;
62268;SDS011;56517;51.634;5.566;2022-07-15T06:40:49;15.98;;;6.43;;
62268;SDS011;56517;51.634;5.566;2022-07-15T06:45:50;7.45;;;5.20;;
62268;SDS011;56517;51.634;5.566;2022-07-15T06:50:51;12.45;;;6.18;;
62268;SDS011;56517;51.634;5.566;2022-07-15T06:55:52;8.60;;;5.53;;
62268;SDS011;56517;51.634;5.566;2022-07-15T07:00:53;13.40;;;6.38;;
62268;SDS011;56517;51.634;5.566;2022-07-15T07:05:54;10.85;;;6.28;;
62268;SDS011;56517;51.634;5.566;2022-07-15T07:10:56;11.50;;;6.00;;
62268;SDS011;56517;51.634;5.566;2022-07-15T07:15:56;10.77;;;5.90;;
62268;SDS011;56517;51.634;5.566;2022-07-15T07:20:57;16.50;;;6.22;;
62268;SDS011;56517;51.634;5.566;2022-07-15T07:25:59;8.95;;;4.65;;
62268;SDS011;56517;51.634;5.566;2022-07-15T07:30:59;10.20;;;5.88;;
62268;SDS011;56517;51.634;5.566;2022-07-15T07:36:00;8.20;;;5.35;;
62268;SDS011;56517;51.634;5.566;2022-07-15T07:41:02;10.65;;;5.78;;
62268;SDS011;56517;51.634;5.566;2022-07-15T07:46:02;10.27;;;5.57;;
62268;SDS011;56517;51.634;5.566;2022-07-15T07:51:03;9.70;;;5.97;;
62268;SDS011;56517;51.634;5.566;2022-07-15T07:56:05;10.32;;;4.50;;
62268;SDS011;56517;51.634;5.566;2022-07-15T08:01:06;7.38;;;4.95;;
62268;SDS011;56517;51.634;5.566;2022-07-15T08:06:07;8.48;;;3.80;;
62268;SDS011;56517;51.634;5.566;2022-07-15T08:11:09;8.25;;;4.60;;
62268;SDS011;56517;51.634;5.566;2022-07-15T08:16:10;14.00;;;4.70;;
62268;SDS011;56517;51.634;5.566;2022-07-15T08:21:10;6.07;;;3.80;;
62268;SDS011;56517;51.634;5.566;2022-07-15T08:26:12;7.60;;;3.85;;
62268;SDS011;56517;51.634;5.566;2022-07-15T08:31:13;6.03;;;3.75;;
62268;SDS011;56517;51.634;5.566;2022-07-15T08:36:13;8.75;;;3.90;;
62268;SDS011;56517;51.634;5.566;2022-07-15T08:41:15;9.35;;;4.50;;
62268;SDS011;56517;51.634;5.566;2022-07-15T08:46:16;13.05;;;5.07;;
62268;SDS011;56517;51.634;5.566;2022-07-15T08:51:16;9.93;;;4.28;;
62268;SDS011;56517;51.634;5.566;2022-07-15T08:56:19;7.13;;;4.20;;
62268;SDS011;56517;51.634;5.566;2022-07-15T09:01:19;9.23;;;4.10;;
62268;SDS011;56517;51.634;5.566;2022-07-15T09:06:30;8.95;;;4.40;;
62268;SDS011;56517;51.634;5.566;2022-07-15T09:11:32;9.20;;;4.03;;
62268;SDS011;56517;51.634;5.566;2022-07-15T09:16:33;6.82;;;3.92;;
62268;SDS011;56517;51.634;5.566;2022-07-15T09:21:33;6.95;;;4.60;;
62268;SDS011;56517;51.634;5.566;2022-07-15T09:26:35;4.93;;;4.13;;
62268;SDS011;56517;51.634;5.566;2022-07-15T09:31:37;5.60;;;4.40;;
62268;SDS011;56517;51.634;5.566;2022-07-15T09:36:37;10.15;;;4.57;;
62268;SDS011;56517;51.634;5.566;2022-07-15T09:41:42;7.03;;;4.32;;
62268;SDS011;56517;51.634;5.566;2022-07-15T09:46:44;8.48;;;4.30;;
62268;SDS011;56517;51.634;5.566;2022-07-15T09:51:45;8.57;;;4.53;;
62268;SDS011;56517;51.634;5.566;2022-07-15T09:56:48;10.23;;;4.38;;
62268;SDS011;56517;51.634;5.566;2022-07-15T10:01:49;6.95;;;3.85;;
62268;SDS011;56517;51.634;5.566;2022-07-15T10:06:50;10.05;;;4.80;;
62268;SDS011;56517;51.634;5.566;2022-07-15T10:11:56;7.65;;;4.25;;
62268;SDS011;56517;51.634;5.566;2022-07-15T10:17:04;6.25;;;4.38;;
62268;SDS011;56517;51.634;5.566;2022-07-15T10:22:09;8.52;;;4.57;;
62268;SDS011;56517;51.634;5.566;2022-07-15T10:27:17;8.75;;;4.07;;
62268;SDS011;56517;51.634;5.566;2022-07-15T10:32:20;8.27;;;4.15;;
62268;SDS011;56517;51.634;5.566;2022-07-15T10:37:20;6.82;;;4.25;;
62268;SDS011;56517;51.634;5.566;2022-07-15T10:42:22;9.52;;;5.15;;
62268;SDS011;56517;51.634;5.566;2022-07-15T10:47:23;8.88;;;4.43;;
62268;SDS011;56517;51.634;5.566;2022-07-15T10:52:24;8.48;;;4.57;;
62268;SDS011;56517;51.634;5.566;2022-07-15T11:02:42;7.10;;;4.53;;
62268;SDS011;56517;51.634;5.566;2022-07-15T11:08:00;6.88;;;4.45;;
62268;SDS011;56517;51.634;5.566;2022-07-15T11:13:31;7.60;;;5.03;;
62268;SDS011;56517;51.634;5.566;2022-07-15T11:18:44;8.10;;;4.22;;
62268;SDS011;56517;51.634;5.566;2022-07-15T11:23:45;7.13;;;4.20;;
62268;SDS011;56517;51.634;5.566;2022-07-15T11:28:48;4.15;;;3.58;;
62268;SDS011;56517;51.634;5.566;2022-07-15T11:33:52;6.53;;;3.67;;
62268;SDS011;56517;51.634;5.566;2022-07-15T11:38:53;5.05;;;3.92;;
62268;SDS011;56517;51.634;5.566;2022-07-15T11:43:57;7.35;;;4.55;;
62268;SDS011;56517;51.634;5.566;2022-07-15T11:48:59;5.80;;;3.80;;
62268;SDS011;56517;51.634;5.566;2022-07-15T11:53:59;5.72;;;3.58;;
62268;SDS011;56517;51.634;5.566;2022-07-15T11:59:00;7.28;;;4.28;;
62268;SDS011;56517;51.634;5.566;2022-07-15T12:04:02;3.80;;;3.40;;
62268;SDS011;56517;51.634;5.566;2022-07-15T12:09:03;4.18;;;3.78;;
62268;SDS011;56517;51.634;5.566;2022-07-15T12:14:04;4.78;;;3.25;;
62268;SDS011;56517;51.634;5.566;2022-07-15T12:19:07;5.22;;;3.53;;
62268;SDS011;56517;51.634;5.566;2022-07-15T12:24:09;8.07;;;3.85;;
62268;SDS011;56517;51.634;5.566;2022-07-15T12:29:10;7.95;;;3.65;;
62268;SDS011;56517;51.634;5.566;2022-07-15T12:34:12;5.00;;;3.20;;
62268;SDS011;56517;51.634;5.566;2022-07-15T12:39:14;7.22;;;3.72;;
62268;SDS011;56517;51.634;5.566;2022-07-15T12:44:14;6.00;;;4.13;;
62268;SDS011;56517;51.634;5.566;2022-07-15T12:54:32;7.15;;;4.03;;
62268;SDS011;56517;51.634;5.566;2022-07-15T13:04:48;5.43;;;4.00;;
62268;SDS011;56517;51.634;5.566;2022-07-15T13:09:50;5.55;;;4.00;;
62268;SDS011;56517;51.634;5.566;2022-07-15T13:14:51;6.38;;;3.75;;
62268;SDS011;56517;51.634;5.566;2022-07-15T13:19:51;6.90;;;3.80;;
62268;SDS011;56517;51.634;5.566;2022-07-15T13:24:53;4.28;;;3.17;;
62268;SDS011;56517;51.634;5.566;2022-07-15T13:29:54;7.35;;;4.15;;
62268;SDS011;56517;51.634;5.566;2022-07-15T13:34:55;6.32;;;3.78;;
62268;SDS011;56517;51.634;5.566;2022-07-15T13:39:56;5.93;;;3.60;;
62268;SDS011;56517;51.634;5.566;2022-07-15T13:44:57;8.73;;;3.92;;
62268;SDS011;56517;51.634;5.566;2022-07-15T13:49:58;7.63;;;4.20;;
62268;SDS011;56517;51.634;5.566;2022-07-15T13:55:00;8.77;;;3.70;;
62268;SDS011;56517;51.634;5.566;2022-07-15T14:00:00;4.00;;;3.53;;
62268;SDS011;56517;51.634;5.566;2022-07-15T14:05:01;8.50;;;3.55;;
62268;SDS011;56517;51.634;5.566;2022-07-15T14:10:03;6.72;;;3.85;;
62268;SDS011;56517;51.634;5.566;2022-07-15T14:15:04;7.55;;;4.60;;
62268;SDS011;56517;51.634;5.566;2022-07-15T14:20:05;7.53;;;4.03;;
62268;SDS011;56517;51.634;5.566;2022-07-15T14:25:08;6.68;;;4.70;;
62268;SDS011;56517;51.634;5.566;2022-07-15T14:30:08;8.90;;;4.90;;
62268;SDS011;56517;51.634;5.566;2022-07-15T14:35:09;5.70;;;4.13;;
62268;SDS011;56517;51.634;5.566;2022-07-15T14:40:11;7.38;;;4.65;;
62268;SDS011;56517;51.634;5.566;2022-07-15T14:45:11;7.18;;;4.80;;
62268;SDS011;56517;51.634;5.566;2022-07-15T14:50:12;6.65;;;4.20;;
62268;SDS011;56517;51.634;5.566;2022-07-15T14:55:14;6.63;;;4.57;;
62268;SDS011;56517;51.634;5.566;2022-07-15T15:00:15;9.48;;;4.55;;
62268;SDS011;56517;51.634;5.566;2022-07-15T15:05:15;4.43;;;3.83;;
62268;SDS011;56517;51.634;5.566;2022-07-15T15:10:18;7.40;;;4.20;;
62268;SDS011;56517;51.634;5.566;2022-07-15T15:15:18;7.50;;;5.32;;
62268;SDS011;56517;51.634;5.566;2022-07-15T15:20:19;7.93;;;5.07;;
62268;SDS011;56517;51.634;5.566;2022-07-15T15:25:21;11.07;;;5.82;;
62268;SDS011;56517;51.634;5.566;2022-07-15T15:30:21;7.68;;;5.43;;
62268;SDS011;56517;51.634;5.566;2022-07-15T15:35:22;5.93;;;5.10;;
62268;SDS011;56517;51.634;5.566;2022-07-15T15:40:24;8.65;;;4.63;;
62268;SDS011;56517;51.634;5.566;2022-07-15T15:45:24;12.15;;;6.35;;
62268;SDS011;56517;51.634;5.566;2022-07-15T15:50:25;6.60;;;4.68;;
62268;SDS011;56517;51.634;5.566;2022-07-15T15:55:27;7.78;;;4.57;;
62268;SDS011;56517;51.634;5.566;2022-07-15T16:00:28;4.65;;;4.13;;
62268;SDS011;56517;51.634;5.566;2022-07-15T16:05:29;5.43;;;4.15;;
62268;SDS011;56517;51.634;5.566;2022-07-15T16:10:31;5.82;;;4.03;;
62268;SDS011;56517;51.634;5.566;2022-07-15T16:15:32;10.38;;;4.88;;
62268;SDS011;56517;51.634;5.566;2022-07-15T16:20:33;4.47;;;4.07;;
62268;SDS011;56517;51.634;5.566;2022-07-15T16:25:35;4.90;;;4.40;;
62268;SDS011;56517;51.634;5.566;2022-07-15T16:30:36;9.18;;;5.18;;
62268;SDS011;56517;51.634;5.566;2022-07-15T16:35:37;8.85;;;5.20;;
62268;SDS011;56517;51.634;5.566;2022-07-15T16:40:39;10.77;;;5.10;;
62268;SDS011;56517;51.634;5.566;2022-07-15T16:45:40;6.38;;;4.22;;
62268;SDS011;56517;51.634;5.566;2022-07-15T16:50:41;9.20;;;5.50;;
62268;SDS011;56517;51.634;5.566;2022-07-15T16:55:43;6.35;;;4.22;;
62268;SDS011;56517;51.634;5.566;2022-07-15T17:00:44;15.13;;;5.93;;
62268;SDS011;56517;51.634;5.566;2022-07-15T17:05:44;12.80;;;5.75;;
62268;SDS011;56517;51.634;5.566;2022-07-15T17:10:46;7.20;;;4.55;;
62268;SDS011;56517;51.634;5.566;2022-07-15T17:15:47;8.45;;;4.93;;
62268;SDS011;56517;51.634;5.566;2022-07-15T17:20:47;7.35;;;4.82;;
62268;SDS011;56517;51.634;5.566;2022-07-15T17:25:49;9.23;;;4.60;;
62268;SDS011;56517;51.634;5.566;2022-07-15T17:30:50;7.85;;;4.80;;
62268;SDS011;56517;51.634;5.566;2022-07-15T17:35:50;6.95;;;4.53;;
62268;SDS011;56517;51.634;5.566;2022-07-15T17:40:52;5.97;;;4.38;;
62268;SDS011;56517;51.634;5.566;2022-07-15T17:45:53;7.07;;;4.85;;
62268;SDS011;56517;51.634;5.566;2022-07-15T17:50:53;7.68;;;4.07;;
62268;SDS011;56517;51.634;5.566;2022-07-15T17:55:55;7.72;;;4.40;;
62268;SDS011;56517;51.634;5.566;2022-07-15T18:00:56;7.25;;;4.00;;
62268;SDS011;56517;51.634;5.566;2022-07-15T18:05:57;8.95;;;4.22;;
62268;SDS011;56517;51.634;5.566;2022-07-15T18:10:59;7.43;;;4.55;;
62268;SDS011;56517;51.634;5.566;2022-07-15T18:15:59;5.70;;;3.80;;
62268;SDS011;56517;51.634;5.566;2022-07-15T18:21:00;10.45;;;4.35;;
62268;SDS011;56517;51.634;5.566;2022-07-15T18:26:02;5.70;;;4.43;;
62268;SDS011;56517;51.634;5.566;2022-07-15T18:31:03;5.32;;;3.85;;
62268;SDS011;56517;51.634;5.566;2022-07-15T18:36:04;6.38;;;4.47;;
62268;SDS011;56517;51.634;5.566;2022-07-15T18:41:06;7.22;;;3.80;;
62268;SDS011;56517;51.634;5.566;2022-07-15T18:46:08;8.98;;;5.25;;
62268;SDS011;56517;51.634;5.566;2022-07-15T18:51:09;9.25;;;6.10;;
62268;SDS011;56517;51.634;5.566;2022-07-15T18:56:11;7.88;;;5.20;;
62268;SDS011;56517;51.634;5.566;2022-07-15T19:01:11;8.07;;;4.43;;
62268;SDS011;56517;51.634;5.566;2022-07-15T19:06:12;7.03;;;4.20;;
62268;SDS011;56517;51.634;5.566;2022-07-15T19:11:14;7.53;;;4.50;;
62268;SDS011;56517;51.634;5.566;2022-07-15T19:16:15;10.32;;;4.40;;
62268;SDS011;56517;51.634;5.566;2022-07-15T19:21:16;6.15;;;4.63;;
62268;SDS011;56517;51.634;5.566;2022-07-15T19:26:18;6.43;;;4.88;;
62268;SDS011;56517;51.634;5.566;2022-07-15T19:31:18;10.02;;;4.65;;
62268;SDS011;56517;51.634;5.566;2022-07-15T19:36:19;8.73;;;4.05;;
62268;SDS011;56517;51.634;5.566;2022-07-15T19:41:21;5.18;;;4.10;;
62268;SDS011;56517;51.634;5.566;2022-07-15T19:46:21;6.57;;;4.32;;
62268;SDS011;56517;51.634;5.566;2022-07-15T19:51:22;6.13;;;4.43;;
62268;SDS011;56517;51.634;5.566;2022-07-15T19:56:24;7.90;;;4.93;;
62268;SDS011;56517;51.634;5.566;2022-07-15T20:01:24;7.13;;;4.10;;
62268;SDS011;56517;51.634;5.566;2022-07-15T20:06:25;6.90;;;4.20;;
62268;SDS011;56517;51.634;5.566;2022-07-15T20:11:27;9.63;;;5.00;;
62268;SDS011;56517;51.634;5.566;2022-07-15T20:16:27;7.32;;;4.60;;
62268;SDS011;56517;51.634;5.566;2022-07-15T20:21:28;9.55;;;4.65;;
62268;SDS011;56517;51.634;5.566;2022-07-15T20:26:30;5.78;;;4.20;;
62268;SDS011;56517;51.634;5.566;2022-07-15T20:31:31;9.13;;;4.80;;
62268;SDS011;56517;51.634;5.566;2022-07-15T20:36:32;6.78;;;4.22;;
62268;SDS011;56517;51.634;5.566;2022-07-15T20:41:33;5.38;;;4.35;;
62268;SDS011;56517;51.634;5.566;2022-07-15T20:46:34;6.95;;;4.50;;
62268;SDS011;56517;51.634;5.566;2022-07-15T20:51:35;7.28;;;4.53;;
62268;SDS011;56517;51.634;5.566;2022-07-15T20:56:36;8.05;;;4.93;;
62268;SDS011;56517;51.634;5.566;2022-07-15T21:01:37;8.77;;;4.40;;
62268;SDS011;56517;51.634;5.566;2022-07-15T21:06:38;7.90;;;4.78;;
62268;SDS011;56517;51.634;5.566;2022-07-15T21:11:39;6.43;;;4.85;;
62268;SDS011;56517;51.634;5.566;2022-07-15T21:16:40;9.25;;;4.63;;
62268;SDS011;56517;51.634;5.566;2022-07-15T21:21:41;9.07;;;4.57;;
62268;SDS011;56517;51.634;5.566;2022-07-15T21:26:43;7.97;;;4.25;;
62268;SDS011;56517;51.634;5.566;2022-07-15T21:31:43;6.93;;;4.88;;
62268;SDS011;56517;51.634;5.566;2022-07-15T21:36:44;12.90;;;5.22;;
62268;SDS011;56517;51.634;5.566;2022-07-15T21:41:46;6.05;;;3.83;;
62268;SDS011;56517;51.634;5.566;2022-07-15T21:46:46;5.85;;;4.68;;
62268;SDS011;56517;51.634;5.566;2022-07-15T21:51:47;6.95;;;4.45;;
62268;SDS011;56517;51.634;5.566;2022-07-15T21:56:49;9.27;;;5.15;;
62268;SDS011;56517;51.634;5.566;2022-07-15T22:01:49;8.88;;;4.45;;
62268;SDS011;56517;51.634;5.566;2022-07-15T22:06:50;8.50;;;5.20;;
62268;SDS011;56517;51.634;5.566;2022-07-15T22:11:52;7.32;;;5.07;;
62268;SDS011;56517;51.634;5.566;2022-07-15T22:16:52;5.60;;;4.45;;
62268;SDS011;56517;51.634;5.566;2022-07-15T22:21:53;6.93;;;4.50;;
62268;SDS011;56517;51.634;5.566;2022-07-15T22:26:55;6.82;;;4.85;;
62268;SDS011;56517;51.634;5.566;2022-07-15T22:31:56;8.98;;;4.68;;
62268;SDS011;56517;51.634;5.566;2022-07-15T22:36:56;7.53;;;4.80;;
62268;SDS011;56517;51.634;5.566;2022-07-15T22:41:58;8.93;;;4.50;;
62268;SDS011;56517;51.634;5.566;2022-07-15T22:46:59;7.88;;;4.80;;
62268;SDS011;56517;51.634;5.566;2022-07-15T22:51:59;8.85;;;4.88;;
62268;SDS011;56517;51.634;5.566;2022-07-15T22:57:01;9.63;;;5.25;;
62268;SDS011;56517;51.634;5.566;2022-07-15T23:02:02;8.07;;;5.63;;
62268;SDS011;56517;51.634;5.566;2022-07-15T23:07:02;7.13;;;5.32;;
62268;SDS011;56517;51.634;5.566;2022-07-15T23:12:05;6.63;;;5.25;;
62268;SDS011;56517;51.634;5.566;2022-07-15T23:17:06;9.10;;;5.97;;
62268;SDS011;56517;51.634;5.566;2022-07-15T23:22:06;7.28;;;5.57;;
62268;SDS011;56517;51.634;5.566;2022-07-15T23:27:08;8.27;;;5.57;;
62268;SDS011;56517;51.634;5.566;2022-07-15T23:32:09;11.30;;;6.55;;
62268;SDS011;56517;51.634;5.566;2022-07-15T23:37:10;7.32;;;5.97;;
62268;SDS011;56517;51.634;5.566;2022-07-15T23:42:11;7.30;;;6.00;;
62268;SDS011;56517;51.634;5.566;2022-07-15T23:47:12;10.73;;;6.30;;
62268;SDS011;56517;51.634;5.566;2022-07-15T23:52:13;7.47;;;6.38;;
62268;SDS011;56517;51.634;5.566;2022-07-15T23:57:14;8.75;;;6.72;;
